sensor_id;sensor_type;location;lat;lon;timestamp;temperature;humidity
26990;DHT22;14537;47.788;11.858;2023-04-25T00:00:45;5.50;99.90
26990;DHT22;14537;47.788;11.858;2023-04-25T00:03:11;5.60;99.90
26990;DHT22;14537;47.788;11.858;2023-04-25T00:05:37;5.60;99.90
26990;DHT22;14537;47.788;11.858;2023-04-25T00:08:03;5.60;99.90
26990;DHT22;14537;47.788;11.858;2023-04-25T00:10:29;5.60;99.90
26990;DHT22;14537;47.788;11.858;2023-04-25T00:12:55;5.60;99.90
26990;DHT22;14537;47.788;11.858;2023-04-25T00:15:20;5.60;99.90
26990;DHT22;14537;47.788;11.858;2023-04-25T00:17:47;5.60;99.90
26990;DHT22;14537;47.788;11.858;2023-04-25T00:20:13;5.60;99.90
26990;DHT22;14537;47.788;11.858;2023-04-25T00:22:38;5.60;99.90
26990;DHT22;14537;47.788;11.858;2023-04-25T00:25:05;5.60;99.90
26990;DHT22;14537;47.788;11.858;2023-04-25T00:27:31;5.60;99.90
26990;DHT22;14537;47.788;11.858;2023-04-25T00:29:57;5.60;99.90
26990;DHT22;14537;47.788;11.858;2023-04-25T00:32:23;5.70;99.90
26990;DHT22;14537;47.788;11.858;2023-04-25T00:34:48;5.60;99.90
26990;DHT22;14537;47.788;11.858;2023-04-25T00:37:14;5.60;99.90
26990;DHT22;14537;47.788;11.858;2023-04-25T00:39:40;5.70;99.90
26990;DHT22;14537;47.788;11.858;2023-04-25T00:42:05;5.70;99.90
26990;DHT22;14537;47.788;11.858;2023-04-25T00:44:32;5.70;99.90
26990;DHT22;14537;47.788;11.858;2023-04-25T00:46:59;5.60;99.90
26990;DHT22;14537;47.788;11.858;2023-04-25T00:49:25;5.70;99.90
26990;DHT22;14537;47.788;11.858;2023-04-25T00:51:51;5.70;99.90
26990;DHT22;14537;47.788;11.858;2023-04-25T00:54:16;5.70;99.90
26990;DHT22;14537;47.788;11.858;2023-04-25T00:56:42;5.80;99.90
26990;DHT22;14537;47.788;11.858;2023-04-25T00:59:10;5.80;99.90
26990;DHT22;14537;47.788;11.858;2023-04-25T01:01:36;5.80;99.90
26990;DHT22;14537;47.788;11.858;2023-04-25T01:04:03;5.60;99.90
26990;DHT22;14537;47.788;11.858;2023-04-25T01:06:29;5.70;99.90
26990;DHT22;14537;47.788;11.858;2023-04-25T01:08:56;5.70;99.90
26990;DHT22;14537;47.788;11.858;2023-04-25T01:11:22;5.80;99.90
26990;DHT22;14537;47.788;11.858;2023-04-25T01:13:48;5.80;99.90
26990;DHT22;14537;47.788;11.858;2023-04-25T01:16:14;5.80;99.90
26990;DHT22;14537;47.788;11.858;2023-04-25T01:18:40;5.90;99.90
26990;DHT22;14537;47.788;11.858;2023-04-25T01:21:09;5.90;99.90
26990;DHT22;14537;47.788;11.858;2023-04-25T01:23:36;5.90;99.90
26990;DHT22;14537;47.788;11.858;2023-04-25T01:26:02;5.80;99.90
26990;DHT22;14537;47.788;11.858;2023-04-25T01:28:29;5.90;99.90
26990;DHT22;14537;47.788;11.858;2023-04-25T01:30:55;5.90;99.90
26990;DHT22;14537;47.788;11.858;2023-04-25T01:33:21;6.00;99.90
26990;DHT22;14537;47.788;11.858;2023-04-25T01:35:47;6.00;99.90
26990;DHT22;14537;47.788;11.858;2023-04-25T01:38:13;6.00;99.90
26990;DHT22;14537;47.788;11.858;2023-04-25T01:40:40;6.10;99.90
26990;DHT22;14537;47.788;11.858;2023-04-25T01:43:07;6.10;99.90
26990;DHT22;14537;47.788;11.858;2023-04-25T01:45:37;6.10;99.90
26990;DHT22;14537;47.788;11.858;2023-04-25T01:48:05;6.10;99.90
26990;DHT22;14537;47.788;11.858;2023-04-25T01:50:30;6.10;99.90
26990;DHT22;14537;47.788;11.858;2023-04-25T01:52:56;6.10;99.90
26990;DHT22;14537;47.788;11.858;2023-04-25T01:55:22;6.20;99.90
26990;DHT22;14537;47.788;11.858;2023-04-25T01:57:47;6.10;99.90
26990;DHT22;14537;47.788;11.858;2023-04-25T02:00:13;6.10;99.90
26990;DHT22;14537;47.788;11.858;2023-04-25T02:02:39;6.10;99.90
26990;DHT22;14537;47.788;11.858;2023-04-25T02:05:05;6.10;99.90
26990;DHT22;14537;47.788;11.858;2023-04-25T02:07:32;6.10;99.90
26990;DHT22;14537;47.788;11.858;2023-04-25T02:09:57;6.10;99.90
26990;DHT22;14537;47.788;11.858;2023-04-25T02:12:23;6.10;99.90
26990;DHT22;14537;47.788;11.858;2023-04-25T02:14:49;6.00;99.90
26990;DHT22;14537;47.788;11.858;2023-04-25T02:17:15;6.00;99.90
26990;DHT22;14537;47.788;11.858;2023-04-25T02:19:41;6.00;99.90
26990;DHT22;14537;47.788;11.858;2023-04-25T02:22:07;6.00;99.90
26990;DHT22;14537;47.788;11.858;2023-04-25T02:24:32;6.00;99.90
26990;DHT22;14537;47.788;11.858;2023-04-25T02:26:59;6.00;99.90
26990;DHT22;14537;47.788;11.858;2023-04-25T02:29:25;6.00;99.90
26990;DHT22;14537;47.788;11.858;2023-04-25T02:31:50;6.10;99.90
26990;DHT22;14537;47.788;11.858;2023-04-25T02:34:16;6.00;99.90
26990;DHT22;14537;47.788;11.858;2023-04-25T02:36:41;6.00;99.90
26990;DHT22;14537;47.788;11.858;2023-04-25T02:39:07;6.00;99.90
26990;DHT22;14537;47.788;11.858;2023-04-25T02:41:32;6.00;99.90
26990;DHT22;14537;47.788;11.858;2023-04-25T02:43:58;6.20;99.90
26990;DHT22;14537;47.788;11.858;2023-04-25T02:46:23;6.20;99.90
26990;DHT22;14537;47.788;11.858;2023-04-25T02:48:49;6.20;99.90
26990;DHT22;14537;47.788;11.858;2023-04-25T02:51:15;6.20;99.90
26990;DHT22;14537;47.788;11.858;2023-04-25T02:53:41;6.20;99.90
26990;DHT22;14537;47.788;11.858;2023-04-25T02:56:07;6.20;99.90
26990;DHT22;14537;47.788;11.858;2023-04-25T02:58:33;6.20;99.90
26990;DHT22;14537;47.788;11.858;2023-04-25T03:00:58;6.20;99.90
26990;DHT22;14537;47.788;11.858;2023-04-25T03:03:24;6.30;99.90
26990;DHT22;14537;47.788;11.858;2023-04-25T03:05:50;6.20;99.90
26990;DHT22;14537;47.788;11.858;2023-04-25T03:08:17;6.20;99.90
26990;DHT22;14537;47.788;11.858;2023-04-25T03:10:43;6.30;99.90
26990;DHT22;14537;47.788;11.858;2023-04-25T03:13:08;6.30;99.90
26990;DHT22;14537;47.788;11.858;2023-04-25T03:15:35;6.30;99.90
26990;DHT22;14537;47.788;11.858;2023-04-25T03:18:01;6.20;99.90
26990;DHT22;14537;47.788;11.858;2023-04-25T03:20:27;6.20;99.90
26990;DHT22;14537;47.788;11.858;2023-04-25T03:22:53;6.20;99.90
26990;DHT22;14537;47.788;11.858;2023-04-25T03:25:18;6.10;99.90
26990;DHT22;14537;47.788;11.858;2023-04-25T03:27:44;6.10;99.90
26990;DHT22;14537;47.788;11.858;2023-04-25T03:30:10;6.10;99.90
26990;DHT22;14537;47.788;11.858;2023-04-25T03:32:36;6.00;99.90
26990;DHT22;14537;47.788;11.858;2023-04-25T03:35:02;6.00;99.90
26990;DHT22;14537;47.788;11.858;2023-04-25T03:37:28;6.00;99.90
26990;DHT22;14537;47.788;11.858;2023-04-25T03:39:54;6.00;99.90
26990;DHT22;14537;47.788;11.858;2023-04-25T03:42:19;6.10;99.90
26990;DHT22;14537;47.788;11.858;2023-04-25T03:44:45;6.00;99.90
26990;DHT22;14537;47.788;11.858;2023-04-25T03:47:10;6.00;99.90
26990;DHT22;14537;47.788;11.858;2023-04-25T03:49:36;6.00;99.90
26990;DHT22;14537;47.788;11.858;2023-04-25T03:52:02;6.10;99.90
26990;DHT22;14537;47.788;11.858;2023-04-25T03:54:28;6.00;99.90
26990;DHT22;14537;47.788;11.858;2023-04-25T03:56:54;6.00;99.90
26990;DHT22;14537;47.788;11.858;2023-04-25T03:59:19;6.00;99.90
26990;DHT22;14537;47.788;11.858;2023-04-25T04:01:45;6.00;99.90
26990;DHT22;14537;47.788;11.858;2023-04-25T04:04:10;6.00;99.90
26990;DHT22;14537;47.788;11.858;2023-04-25T04:06:36;6.00;99.90
26990;DHT22;14537;47.788;11.858;2023-04-25T04:09:02;6.00;99.90
26990;DHT22;14537;47.788;11.858;2023-04-25T04:11:28;6.10;99.90
26990;DHT22;14537;47.788;11.858;2023-04-25T04:13:54;6.10;99.90
26990;DHT22;14537;47.788;11.858;2023-04-25T04:16:20;6.20;99.90
26990;DHT22;14537;47.788;11.858;2023-04-25T04:18:45;6.00;99.90
26990;DHT22;14537;47.788;11.858;2023-04-25T04:21:11;5.80;99.90
26990;DHT22;14537;47.788;11.858;2023-04-25T04:23:37;5.50;99.90
26990;DHT22;14537;47.788;11.858;2023-04-25T04:26:03;5.40;99.90
26990;DHT22;14537;47.788;11.858;2023-04-25T04:28:28;5.30;99.90
26990;DHT22;14537;47.788;11.858;2023-04-25T04:30:55;5.20;99.90
26990;DHT22;14537;47.788;11.858;2023-04-25T04:33:20;5.20;99.90
26990;DHT22;14537;47.788;11.858;2023-04-25T04:35:46;5.30;99.90
26990;DHT22;14537;47.788;11.858;2023-04-25T04:38:13;5.20;99.90
26990;DHT22;14537;47.788;11.858;2023-04-25T04:40:41;5.20;99.90
26990;DHT22;14537;47.788;11.858;2023-04-25T04:43:08;5.20;99.90
26990;DHT22;14537;47.788;11.858;2023-04-25T04:45:35;5.30;99.90
26990;DHT22;14537;47.788;11.858;2023-04-25T04:48:01;5.30;99.90
26990;DHT22;14537;47.788;11.858;2023-04-25T04:50:27;5.30;99.90
26990;DHT22;14537;47.788;11.858;2023-04-25T04:52:53;5.30;99.90
26990;DHT22;14537;47.788;11.858;2023-04-25T04:55:20;5.20;99.90
26990;DHT22;14537;47.788;11.858;2023-04-25T04:57:46;5.10;99.90
26990;DHT22;14537;47.788;11.858;2023-04-25T05:00:12;5.10;99.90
26990;DHT22;14537;47.788;11.858;2023-04-25T05:02:38;5.20;99.90
26990;DHT22;14537;47.788;11.858;2023-04-25T05:05:05;5.20;99.90
26990;DHT22;14537;47.788;11.858;2023-04-25T05:07:30;5.20;99.90
26990;DHT22;14537;47.788;11.858;2023-04-25T05:09:56;5.30;99.90
26990;DHT22;14537;47.788;11.858;2023-04-25T05:12:21;5.20;99.90
26990;DHT22;14537;47.788;11.858;2023-04-25T05:14:47;5.30;99.90
26990;DHT22;14537;47.788;11.858;2023-04-25T05:17:12;5.30;99.90
26990;DHT22;14537;47.788;11.858;2023-04-25T05:19:38;5.40;99.90
26990;DHT22;14537;47.788;11.858;2023-04-25T05:22:04;5.40;99.90
26990;DHT22;14537;47.788;11.858;2023-04-25T05:24:30;5.40;99.90
26990;DHT22;14537;47.788;11.858;2023-04-25T05:26:56;5.40;99.90
26990;DHT22;14537;47.788;11.858;2023-04-25T05:29:21;5.30;99.90
26990;DHT22;14537;47.788;11.858;2023-04-25T05:31:47;5.30;99.90
26990;DHT22;14537;47.788;11.858;2023-04-25T05:34:13;5.20;99.90
26990;DHT22;14537;47.788;11.858;2023-04-25T05:36:39;5.20;99.90
26990;DHT22;14537;47.788;11.858;2023-04-25T05:39:05;5.20;99.90
26990;DHT22;14537;47.788;11.858;2023-04-25T05:41:31;5.10;99.90
26990;DHT22;14537;47.788;11.858;2023-04-25T05:43:57;5.10;99.90
26990;DHT22;14537;47.788;11.858;2023-04-25T05:46:22;5.10;99.90
26990;DHT22;14537;47.788;11.858;2023-04-25T05:48:48;5.10;99.90
26990;DHT22;14537;47.788;11.858;2023-04-25T05:51:13;5.20;99.90
26990;DHT22;14537;47.788;11.858;2023-04-25T05:53:39;5.30;99.90
26990;DHT22;14537;47.788;11.858;2023-04-25T05:56:05;5.40;99.90
26990;DHT22;14537;47.788;11.858;2023-04-25T05:58:30;5.30;99.90
26990;DHT22;14537;47.788;11.858;2023-04-25T06:00:56;5.50;99.90
26990;DHT22;14537;47.788;11.858;2023-04-25T06:03:22;5.50;99.90
26990;DHT22;14537;47.788;11.858;2023-04-25T06:05:47;5.50;99.90
26990;DHT22;14537;47.788;11.858;2023-04-25T06:08:13;5.50;99.90
26990;DHT22;14537;47.788;11.858;2023-04-25T06:10:39;5.50;99.90
26990;DHT22;14537;47.788;11.858;2023-04-25T06:13:05;5.50;99.90
26990;DHT22;14537;47.788;11.858;2023-04-25T06:15:31;5.50;99.90
26990;DHT22;14537;47.788;11.858;2023-04-25T06:17:57;5.60;99.90
26990;DHT22;14537;47.788;11.858;2023-04-25T06:20:23;5.70;99.90
26990;DHT22;14537;47.788;11.858;2023-04-25T06:22:50;5.80;99.90
26990;DHT22;14537;47.788;11.858;2023-04-25T06:25:17;5.90;99.90
26990;DHT22;14537;47.788;11.858;2023-04-25T06:27:43;6.10;99.90
26990;DHT22;14537;47.788;11.858;2023-04-25T06:30:09;6.10;99.90
26990;DHT22;14537;47.788;11.858;2023-04-25T06:32:35;6.00;99.90
26990;DHT22;14537;47.788;11.858;2023-04-25T06:35:00;6.00;99.90
26990;DHT22;14537;47.788;11.858;2023-04-25T06:37:26;6.00;99.90
26990;DHT22;14537;47.788;11.858;2023-04-25T06:39:52;6.00;99.90
26990;DHT22;14537;47.788;11.858;2023-04-25T06:42:17;6.10;99.90
26990;DHT22;14537;47.788;11.858;2023-04-25T06:44:43;6.10;99.90
26990;DHT22;14537;47.788;11.858;2023-04-25T06:47:09;6.10;99.90
26990;DHT22;14537;47.788;11.858;2023-04-25T06:49:34;6.10;99.90
26990;DHT22;14537;47.788;11.858;2023-04-25T06:52:00;6.20;99.90
26990;DHT22;14537;47.788;11.858;2023-04-25T06:54:26;6.20;99.90
26990;DHT22;14537;47.788;11.858;2023-04-25T06:56:54;6.30;99.90
26990;DHT22;14537;47.788;11.858;2023-04-25T06:59:19;6.30;99.90
26990;DHT22;14537;47.788;11.858;2023-04-25T07:01:45;6.40;99.90
26990;DHT22;14537;47.788;11.858;2023-04-25T07:04:11;6.50;99.90
26990;DHT22;14537;47.788;11.858;2023-04-25T07:06:36;6.50;99.90
26990;DHT22;14537;47.788;11.858;2023-04-25T07:09:08;6.50;99.90
26990;DHT22;14537;47.788;11.858;2023-04-25T07:11:34;6.60;99.90
26990;DHT22;14537;47.788;11.858;2023-04-25T07:13:59;6.70;99.90
26990;DHT22;14537;47.788;11.858;2023-04-25T07:16:25;6.80;99.90
26990;DHT22;14537;47.788;11.858;2023-04-25T07:18:50;7.00;99.90
26990;DHT22;14537;47.788;11.858;2023-04-25T07:21:16;7.10;99.90
26990;DHT22;14537;47.788;11.858;2023-04-25T07:23:42;7.20;99.90
26990;DHT22;14537;47.788;11.858;2023-04-25T07:26:07;7.20;99.90
26990;DHT22;14537;47.788;11.858;2023-04-25T07:28:33;7.30;99.90
26990;DHT22;14537;47.788;11.858;2023-04-25T07:30:58;7.50;99.90
26990;DHT22;14537;47.788;11.858;2023-04-25T07:33:24;7.60;99.90
26990;DHT22;14537;47.788;11.858;2023-04-25T07:35:50;7.60;99.90
26990;DHT22;14537;47.788;11.858;2023-04-25T07:38:16;7.80;99.90
26990;DHT22;14537;47.788;11.858;2023-04-25T07:40:41;7.90;99.90
26990;DHT22;14537;47.788;11.858;2023-04-25T07:43:07;8.00;99.90
26990;DHT22;14537;47.788;11.858;2023-04-25T07:45:32;8.00;99.90
26990;DHT22;14537;47.788;11.858;2023-04-25T07:47:58;7.90;99.90
26990;DHT22;14537;47.788;11.858;2023-04-25T07:50:24;8.10;99.90
26990;DHT22;14537;47.788;11.858;2023-04-25T07:52:49;8.10;99.90
26990;DHT22;14537;47.788;11.858;2023-04-25T07:55:15;8.20;99.90
26990;DHT22;14537;47.788;11.858;2023-04-25T07:57:40;8.30;99.90
26990;DHT22;14537;47.788;11.858;2023-04-25T08:00:07;8.40;99.90
26990;DHT22;14537;47.788;11.858;2023-04-25T08:02:37;8.10;99.90
26990;DHT22;14537;47.788;11.858;2023-04-25T08:05:03;8.00;99.90
26990;DHT22;14537;47.788;11.858;2023-04-25T08:07:29;7.90;99.90
26990;DHT22;14537;47.788;11.858;2023-04-25T08:09:54;7.80;99.90
26990;DHT22;14537;47.788;11.858;2023-04-25T08:12:20;7.70;99.90
26990;DHT22;14537;47.788;11.858;2023-04-25T08:14:46;7.70;99.90
26990;DHT22;14537;47.788;11.858;2023-04-25T08:17:11;7.60;99.90
26990;DHT22;14537;47.788;11.858;2023-04-25T08:19:37;7.50;99.90
26990;DHT22;14537;47.788;11.858;2023-04-25T08:22:03;7.50;99.90
26990;DHT22;14537;47.788;11.858;2023-04-25T08:24:28;7.60;99.90
26990;DHT22;14537;47.788;11.858;2023-04-25T08:26:54;7.80;99.90
26990;DHT22;14537;47.788;11.858;2023-04-25T08:29:20;7.70;99.90
26990;DHT22;14537;47.788;11.858;2023-04-25T08:31:45;7.50;99.90
26990;DHT22;14537;47.788;11.858;2023-04-25T08:34:11;7.70;99.90
26990;DHT22;14537;47.788;11.858;2023-04-25T08:36:37;7.90;99.90
26990;DHT22;14537;47.788;11.858;2023-04-25T08:39:03;7.90;99.90
26990;DHT22;14537;47.788;11.858;2023-04-25T08:41:28;8.00;99.90
26990;DHT22;14537;47.788;11.858;2023-04-25T08:43:56;7.90;99.90
26990;DHT22;14537;47.788;11.858;2023-04-25T08:46:23;8.00;99.90
26990;DHT22;14537;47.788;11.858;2023-04-25T08:48:49;8.10;99.90
26990;DHT22;14537;47.788;11.858;2023-04-25T08:51:23;8.00;99.90
26990;DHT22;14537;47.788;11.858;2023-04-25T08:53:51;8.30;99.90
26990;DHT22;14537;47.788;11.858;2023-04-25T08:56:18;8.30;99.90
26990;DHT22;14537;47.788;11.858;2023-04-25T08:58:48;8.50;99.90
26990;DHT22;14537;47.788;11.858;2023-04-25T09:01:14;8.40;99.90
26990;DHT22;14537;47.788;11.858;2023-04-25T09:03:40;8.50;99.90
26990;DHT22;14537;47.788;11.858;2023-04-25T09:06:06;8.40;99.90
26990;DHT22;14537;47.788;11.858;2023-04-25T09:08:32;8.40;99.90
26990;DHT22;14537;47.788;11.858;2023-04-25T09:10:58;8.30;99.90
26990;DHT22;14537;47.788;11.858;2023-04-25T09:13:27;8.30;99.90
26990;DHT22;14537;47.788;11.858;2023-04-25T09:15:55;8.40;99.90
26990;DHT22;14537;47.788;11.858;2023-04-25T09:18:25;8.40;99.90
26990;DHT22;14537;47.788;11.858;2023-04-25T09:20:56;8.40;99.90
26990;DHT22;14537;47.788;11.858;2023-04-25T09:23:22;8.30;99.90
26990;DHT22;14537;47.788;11.858;2023-04-25T09:25:51;8.40;99.90
26990;DHT22;14537;47.788;11.858;2023-04-25T09:28:23;8.40;99.90
26990;DHT22;14537;47.788;11.858;2023-04-25T09:30:55;8.40;99.90
26990;DHT22;14537;47.788;11.858;2023-04-25T09:33:30;8.40;99.90
26990;DHT22;14537;47.788;11.858;2023-04-25T09:36:06;8.50;99.90
26990;DHT22;14537;47.788;11.858;2023-04-25T09:38:45;8.50;99.90
26990;DHT22;14537;47.788;11.858;2023-04-25T09:41:11;8.60;99.90
26990;DHT22;14537;47.788;11.858;2023-04-25T09:43:38;8.80;99.90
26990;DHT22;14537;47.788;11.858;2023-04-25T09:46:09;9.00;99.90
26990;DHT22;14537;47.788;11.858;2023-04-25T09:48:35;9.20;99.90
26990;DHT22;14537;47.788;11.858;2023-04-25T09:51:12;9.20;99.90
26990;DHT22;14537;47.788;11.858;2023-04-25T09:53:40;9.30;99.90
26990;DHT22;14537;47.788;11.858;2023-04-25T09:56:11;9.40;99.90
26990;DHT22;14537;47.788;11.858;2023-04-25T09:58:38;9.40;99.90
26990;DHT22;14537;47.788;11.858;2023-04-25T10:01:06;9.40;99.90
26990;DHT22;14537;47.788;11.858;2023-04-25T10:03:35;9.40;99.90
26990;DHT22;14537;47.788;11.858;2023-04-25T10:06:07;9.40;99.90
26990;DHT22;14537;47.788;11.858;2023-04-25T10:08:35;9.50;99.90
26990;DHT22;14537;47.788;11.858;2023-04-25T10:11:03;9.50;99.90
26990;DHT22;14537;47.788;11.858;2023-04-25T10:13:30;9.50;99.90
26990;DHT22;14537;47.788;11.858;2023-04-25T10:16:03;9.50;99.90
26990;DHT22;14537;47.788;11.858;2023-04-25T10:18:30;9.60;99.90
26990;DHT22;14537;47.788;11.858;2023-04-25T10:21:04;9.60;99.90
26990;DHT22;14537;47.788;11.858;2023-04-25T10:23:31;9.40;99.90
26990;DHT22;14537;47.788;11.858;2023-04-25T10:25:57;9.60;99.90
26990;DHT22;14537;47.788;11.858;2023-04-25T10:28:24;9.60;99.90
26990;DHT22;14537;47.788;11.858;2023-04-25T10:31:03;9.70;99.90
26990;DHT22;14537;47.788;11.858;2023-04-25T10:33:36;9.90;99.90
26990;DHT22;14537;47.788;11.858;2023-04-25T10:36:10;10.10;99.90
26990;DHT22;14537;47.788;11.858;2023-04-25T10:38:36;9.80;99.90
26990;DHT22;14537;47.788;11.858;2023-04-25T10:41:04;9.80;99.90
26990;DHT22;14537;47.788;11.858;2023-04-25T10:43:34;9.80;99.90
26990;DHT22;14537;47.788;11.858;2023-04-25T10:46:01;10.00;99.90
26990;DHT22;14537;47.788;11.858;2023-04-25T10:48:31;10.30;99.90
26990;DHT22;14537;47.788;11.858;2023-04-25T10:51:17;10.30;99.90
26990;DHT22;14537;47.788;11.858;2023-04-25T10:56:38;10.10;99.90
26990;DHT22;14537;47.788;11.858;2023-04-25T10:59:15;9.80;99.90
26990;DHT22;14537;47.788;11.858;2023-04-25T11:01:46;9.70;99.90
26990;DHT22;14537;47.788;11.858;2023-04-25T11:04:32;9.40;99.90
26990;DHT22;14537;47.788;11.858;2023-04-25T11:07:13;9.70;99.90
26990;DHT22;14537;47.788;11.858;2023-04-25T11:09:45;10.10;99.90
26990;DHT22;14537;47.788;11.858;2023-04-25T11:12:11;10.30;99.90
26990;DHT22;14537;47.788;11.858;2023-04-25T11:14:40;10.30;99.90
26990;DHT22;14537;47.788;11.858;2023-04-25T11:17:06;10.50;99.90
26990;DHT22;14537;47.788;11.858;2023-04-25T11:19:31;10.70;99.90
26990;DHT22;14537;47.788;11.858;2023-04-25T11:22:01;10.70;99.90
26990;DHT22;14537;47.788;11.858;2023-04-25T11:24:32;10.20;99.90
26990;DHT22;14537;47.788;11.858;2023-04-25T11:26:59;10.10;99.90
26990;DHT22;14537;47.788;11.858;2023-04-25T11:29:31;9.50;99.90
26990;DHT22;14537;47.788;11.858;2023-04-25T11:31:57;8.80;99.90
26990;DHT22;14537;47.788;11.858;2023-04-25T11:34:24;8.30;99.90
26990;DHT22;14537;47.788;11.858;2023-04-25T11:36:50;8.20;99.90
26990;DHT22;14537;47.788;11.858;2023-04-25T11:39:18;7.50;99.90
26990;DHT22;14537;47.788;11.858;2023-04-25T11:41:44;7.20;99.90
26990;DHT22;14537;47.788;11.858;2023-04-25T11:44:10;6.80;99.90
26990;DHT22;14537;47.788;11.858;2023-04-25T11:46:35;6.40;99.90
26990;DHT22;14537;47.788;11.858;2023-04-25T11:49:01;6.10;99.90
26990;DHT22;14537;47.788;11.858;2023-04-25T11:51:27;5.70;99.90
26990;DHT22;14537;47.788;11.858;2023-04-25T11:53:52;5.80;99.90
26990;DHT22;14537;47.788;11.858;2023-04-25T11:56:18;5.60;99.90
26990;DHT22;14537;47.788;11.858;2023-04-25T11:58:57;5.70;99.90
26990;DHT22;14537;47.788;11.858;2023-04-25T12:01:28;5.60;99.90
26990;DHT22;14537;47.788;11.858;2023-04-25T12:03:53;5.60;99.90
26990;DHT22;14537;47.788;11.858;2023-04-25T12:06:19;5.70;99.90
26990;DHT22;14537;47.788;11.858;2023-04-25T12:09:04;5.70;99.90
26990;DHT22;14537;47.788;11.858;2023-04-25T12:11:31;5.40;99.90
26990;DHT22;14537;47.788;11.858;2023-04-25T12:14:03;5.40;99.90
26990;DHT22;14537;47.788;11.858;2023-04-25T12:16:39;5.40;99.90
26990;DHT22;14537;47.788;11.858;2023-04-25T12:19:04;5.40;99.90
26990;DHT22;14537;47.788;11.858;2023-04-25T12:21:30;5.40;99.90
26990;DHT22;14537;47.788;11.858;2023-04-25T12:24:21;5.50;99.90
26990;DHT22;14537;47.788;11.858;2023-04-25T12:27:10;5.60;99.90
26990;DHT22;14537;47.788;11.858;2023-04-25T12:29:35;5.80;99.90
26990;DHT22;14537;47.788;11.858;2023-04-25T12:32:01;6.10;99.90
26990;DHT22;14537;47.788;11.858;2023-04-25T12:34:27;6.30;99.90
26990;DHT22;14537;47.788;11.858;2023-04-25T12:36:53;6.30;99.90
26990;DHT22;14537;47.788;11.858;2023-04-25T12:39:23;6.70;99.90
26990;DHT22;14537;47.788;11.858;2023-04-25T12:41:50;6.80;99.90
26990;DHT22;14537;47.788;11.858;2023-04-25T12:44:17;6.80;99.90
26990;DHT22;14537;47.788;11.858;2023-04-25T12:46:43;7.00;99.90
26990;DHT22;14537;47.788;11.858;2023-04-25T12:49:09;6.90;99.90
26990;DHT22;14537;47.788;11.858;2023-04-25T12:51:35;7.20;99.90
26990;DHT22;14537;47.788;11.858;2023-04-25T12:54:01;7.40;99.90
26990;DHT22;14537;47.788;11.858;2023-04-25T12:56:27;7.70;99.90
26990;DHT22;14537;47.788;11.858;2023-04-25T12:58:53;7.60;99.90
26990;DHT22;14537;47.788;11.858;2023-04-25T13:01:22;7.80;99.90
26990;DHT22;14537;47.788;11.858;2023-04-25T13:03:48;7.60;99.90
26990;DHT22;14537;47.788;11.858;2023-04-25T13:06:14;7.60;99.90
26990;DHT22;14537;47.788;11.858;2023-04-25T13:08:40;7.60;99.90
26990;DHT22;14537;47.788;11.858;2023-04-25T13:11:06;7.30;99.90
26990;DHT22;14537;47.788;11.858;2023-04-25T13:13:32;7.10;99.90
26990;DHT22;14537;47.788;11.858;2023-04-25T13:16:00;7.30;99.90
26990;DHT22;14537;47.788;11.858;2023-04-25T13:18:26;7.10;99.90
26990;DHT22;14537;47.788;11.858;2023-04-25T13:20:55;6.90;99.90
26990;DHT22;14537;47.788;11.858;2023-04-25T13:23:21;6.70;99.90
26990;DHT22;14537;47.788;11.858;2023-04-25T13:25:46;6.40;99.90
26990;DHT22;14537;47.788;11.858;2023-04-25T13:28:13;6.00;99.90
26990;DHT22;14537;47.788;11.858;2023-04-25T13:30:39;5.70;99.90
26990;DHT22;14537;47.788;11.858;2023-04-25T13:33:05;5.50;99.90
26990;DHT22;14537;47.788;11.858;2023-04-25T13:35:32;5.80;99.90
26990;DHT22;14537;47.788;11.858;2023-04-25T13:37:58;6.00;99.90
26990;DHT22;14537;47.788;11.858;2023-04-25T13:40:24;6.10;99.90
26990;DHT22;14537;47.788;11.858;2023-04-25T13:42:50;6.20;99.90
26990;DHT22;14537;47.788;11.858;2023-04-25T13:45:16;6.50;99.90
26990;DHT22;14537;47.788;11.858;2023-04-25T13:47:42;6.60;99.90
26990;DHT22;14537;47.788;11.858;2023-04-25T13:50:08;6.80;99.90
26990;DHT22;14537;47.788;11.858;2023-04-25T13:52:34;6.70;99.90
26990;DHT22;14537;47.788;11.858;2023-04-25T13:54:59;6.60;99.90
26990;DHT22;14537;47.788;11.858;2023-04-25T13:57:26;6.50;99.90
26990;DHT22;14537;47.788;11.858;2023-04-25T13:59:52;6.50;99.90
26990;DHT22;14537;47.788;11.858;2023-04-25T14:02:18;6.30;99.90
26990;DHT22;14537;47.788;11.858;2023-04-25T14:04:43;6.20;99.90
26990;DHT22;14537;47.788;11.858;2023-04-25T14:07:09;6.40;99.90
26990;DHT22;14537;47.788;11.858;2023-04-25T14:09:36;6.40;99.90
26990;DHT22;14537;47.788;11.858;2023-04-25T14:12:02;6.40;99.90
26990;DHT22;14537;47.788;11.858;2023-04-25T14:14:28;6.10;99.90
26990;DHT22;14537;47.788;11.858;2023-04-25T14:16:53;6.20;99.90
26990;DHT22;14537;47.788;11.858;2023-04-25T14:19:20;6.20;99.90
26990;DHT22;14537;47.788;11.858;2023-04-25T14:21:46;6.10;99.90
26990;DHT22;14537;47.788;11.858;2023-04-25T14:24:12;5.90;99.90
26990;DHT22;14537;47.788;11.858;2023-04-25T14:26:38;5.90;99.90
26990;DHT22;14537;47.788;11.858;2023-04-25T14:29:07;5.70;99.90
26990;DHT22;14537;47.788;11.858;2023-04-25T14:31:34;5.50;99.90
26990;DHT22;14537;47.788;11.858;2023-04-25T14:34:01;5.50;99.90
26990;DHT22;14537;47.788;11.858;2023-04-25T14:36:28;5.40;99.90
26990;DHT22;14537;47.788;11.858;2023-04-25T14:38:54;5.40;99.90
26990;DHT22;14537;47.788;11.858;2023-04-25T14:41:20;5.40;99.90
26990;DHT22;14537;47.788;11.858;2023-04-25T14:43:46;5.50;99.90
26990;DHT22;14537;47.788;11.858;2023-04-25T14:46:12;5.70;99.90
26990;DHT22;14537;47.788;11.858;2023-04-25T14:48:38;5.60;99.90
26990;DHT22;14537;47.788;11.858;2023-04-25T14:51:04;5.70;99.90
26990;DHT22;14537;47.788;11.858;2023-04-25T14:53:30;5.70;99.90
26990;DHT22;14537;47.788;11.858;2023-04-25T14:55:56;5.60;99.90
26990;DHT22;14537;47.788;11.858;2023-04-25T14:58:21;5.70;99.90
26990;DHT22;14537;47.788;11.858;2023-04-25T15:00:48;5.80;99.90
26990;DHT22;14537;47.788;11.858;2023-04-25T15:03:13;5.80;99.90
26990;DHT22;14537;47.788;11.858;2023-04-25T15:05:41;5.90;99.90
26990;DHT22;14537;47.788;11.858;2023-04-25T15:08:07;5.90;99.90
26990;DHT22;14537;47.788;11.858;2023-04-25T15:10:33;5.90;99.90
26990;DHT22;14537;47.788;11.858;2023-04-25T15:12:59;6.00;99.90
26990;DHT22;14537;47.788;11.858;2023-04-25T15:15:24;5.90;99.90
26990;DHT22;14537;47.788;11.858;2023-04-25T15:17:50;6.00;99.90
26990;DHT22;14537;47.788;11.858;2023-04-25T15:20:16;5.70;99.90
26990;DHT22;14537;47.788;11.858;2023-04-25T15:22:43;5.60;99.90
26990;DHT22;14537;47.788;11.858;2023-04-25T15:25:10;5.50;99.90
26990;DHT22;14537;47.788;11.858;2023-04-25T15:27:39;5.60;99.90
26990;DHT22;14537;47.788;11.858;2023-04-25T15:30:13;5.60;99.90